Time;durP1;ratioP1;P1;durP2;ratioP2;P2;SDS_P1;SDS_P2;PMS_P1;PMS_P2;Temp;Humidity;BMP_temperature;BMP_pressure;BME280_temperature;BME280_humidity;BME280_pressure;Samples;Min_cycle;Max_cycle;Signal;HPM_P1;HPM_P2
2022/04/03 00:01:26;;;;;;;4.07;1.40;;;;;;;9.12;62.20;99306.84;5012609;28;20041;-72
2022/04/03 00:03:52;;;;;;;7.45;2.13;;;;;;;9.11;62.03;99315.56;5002638;28;20435;-72
2022/04/03 00:06:18;;;;;;;6.07;2.05;;;;;;;8.74;62.43;99295.91;5007737;28;20026;-72
2022/04/03 00:08:44;;;;;;;5.18;2.28;;;;;;;8.92;62.21;99315.78;4996280;28;20543;-73
2022/04/03 00:11:10;;;;;;;7.65;2.22;;;;;;;8.73;62.46;99285.47;5017598;28;20393;-73
2022/04/03 00:13:39;;;;;;;4.18;1.60;;;;;;;9.04;62.03;99320.03;5008711;28;20056;-73
2022/04/03 00:16:06;;;;;;;8.30;2.72;;;;;;;8.94;62.84;99316.63;5036445;28;20472;-72
2022/04/03 00:18:32;;;;;;;7.00;2.55;;;;;;;8.70;63.38;99303.81;5038906;28;20526;-73
2022/04/03 00:20:59;;;;;;;6.90;3.13;;;;;;;8.99;63.32;99327.91;5043237;28;20098;-73
2022/04/03 00:23:25;;;;;;;13.68;2.72;;;;;;;8.71;62.83;99300.31;5036782;28;20384;-72
2022/04/03 00:25:51;;;;;;;5.93;2.88;;;;;;;8.72;63.14;99326.44;5022040;28;20041;-74
2022/04/03 00:28:17;;;;;;;5.22;2.78;;;;;;;8.58;63.50;99350.13;5010841;28;20045;-73
2022/04/03 00:30:43;;;;;;;8.15;2.63;;;;;;;8.63;63.38;99343.09;5000918;28;20502;-73
2022/04/03 00:33:11;;;;;;;4.82;1.77;;;;;;;8.63;62.97;99337.00;5020219;28;20021;-73
2022/04/03 00:35:36;;;;;;;4.00;2.00;;;;;;;8.87;62.69;99362.94;5026135;28;20501;-72
2022/04/03 00:38:02;;;;;;;5.35;2.70;;;;;;;8.60;62.56;99360.56;5032214;28;20476;-74
2022/04/03 00:40:28;;;;;;;7.45;2.78;;;;;;;8.38;62.55;99331.97;5013086;28;20045;-71
2022/04/03 00:42:54;;;;;;;12.35;1.88;;;;;;;8.44;62.78;99328.47;5026179;28;20521;-73
2022/04/03 00:45:19;;;;;;;5.38;2.50;;;;;;;8.43;63.09;99330.22;5031804;28;20026;-73
2022/04/03 00:47:48;;;;;;;4.28;2.75;;;;;;;8.36;61.74;99344.19;5035610;28;20079;-74
2022/04/03 00:50:17;;;;;;;4.75;1.90;;;;;;;8.27;61.95;99351.25;5037598;28;20135;-73
2022/04/03 00:52:44;;;;;;;3.00;1.63;;;;;;;8.33;61.42;99333.72;5020983;28;20033;-73
2022/04/03 00:55:10;;;;;;;7.90;2.50;;;;;;;8.15;61.04;99334.78;5031327;28;20057;-72
2022/04/03 00:57:36;;;;;;;5.30;2.33;;;;;;;8.15;61.05;99350.44;5034825;28;20061;-74
2022/04/03 01:00:02;;;;;;;5.68;2.38;;;;;;;8.01;60.99;99371.44;5032538;28;20020;-73
2022/04/03 01:02:28;;;;;;;6.07;1.88;;;;;;;8.44;61.48;99365.06;5030901;28;20036;-73
2022/04/03 01:04:53;;;;;;;3.25;1.63;;;;;;;7.79;61.33;99365.47;5037751;28;20057;-73
2022/04/03 01:07:20;;;;;;;9.80;2.58;;;;;;;7.88;61.34;99351.50;5033284;28;20037;-73
2022/04/03 01:09:45;;;;;;;4.32;2.47;;;;;;;8.24;61.19;99352.09;5029941;28;20041;-75
2022/04/03 01:12:11;;;;;;;3.53;2.17;;;;;;;7.79;59.87;99343.72;5034658;28;20040;-72
2022/04/03 01:14:40;;;;;;;5.10;2.95;;;;;;;7.67;61.55;99346.41;5035196;28;20053;-73
2022/04/03 01:17:09;;;;;;;3.10;1.75;;;;;;;7.60;61.03;99350.78;5034890;28;20095;-72
2022/04/03 01:19:35;;;;;;;5.90;2.10;;;;;;;7.46;61.21;99345.63;5035736;28;20050;-73
2022/04/03 01:22:09;;;;;;;5.57;2.92;;;;;;;7.47;61.37;99343.88;5017240;28;20050;-73
2022/04/03 01:24:45;;;;;;;6.18;3.05;;;;;;;7.52;61.60;99348.22;5039896;28;20080;-75
2022/04/03 01:27:10;;;;;;;3.90;1.98;;;;;;;7.88;60.66;99368.91;5034032;28;20404;-73
2022/04/03 01:29:36;;;;;;;3.13;1.65;;;;;;;7.75;60.78;99376.81;5022317;28;20041;-73
2022/04/03 01:32:04;;;;;;;4.47;1.92;;;;;;;7.57;61.57;99375.16;5035781;28;20410;-74
2022/04/03 01:34:30;;;;;;;4.70;2.08;;;;;;;7.59;60.95;99364.72;5031965;28;20056;-74
2022/04/03 01:36:56;;;;;;;4.28;2.05;;;;;;;7.24;61.44;99344.88;5036549;28;20124;-73
2022/04/03 01:39:47;;;;;;;5.90;2.67;;;;;;;7.68;61.50;99361.19;5016947;28;20096;-73
2022/04/03 01:42:13;;;;;;;3.15;2.38;;;;;;;7.40;62.29;99345.69;5038404;28;20090;-72
2022/04/03 01:44:45;;;;;;;3.35;1.90;;;;;;;6.98;62.42;99324.09;5035091;28;20041;-72
2022/04/03 01:47:11;;;;;;;4.70;1.90;;;;;;;7.28;62.54;99356.13;5020860;28;20525;-75
2022/04/03 01:49:36;;;;;;;4.40;2.40;;;;;;;7.35;62.47;99363.06;5021619;28;20049;-73
2022/04/03 01:52:02;;;;;;;5.47;1.55;;;;;;;7.16;62.15;99339.69;5037495;28;20029;-71
2022/04/03 01:54:27;;;;;;;3.42;1.90;;;;;;;7.21;62.03;99341.38;5034699;28;20368;-74
2022/04/03 01:56:53;;;;;;;6.28;2.83;;;;;;;7.27;62.73;99367.47;5023103;28;20443;-74
2022/04/03 01:59:18;;;;;;;5.03;2.33;;;;;;;6.96;63.82;99376.25;5020311;28;20450;-74
2022/04/03 02:01:44;;;;;;;4.28;2.15;;;;;;;7.16;62.10;99362.28;5038480;28;20451;-74
2022/04/03 02:04:10;;;;;;;3.40;1.90;;;;;;;7.30;62.64;99352.66;5031144;28;20493;-73
2022/04/03 02:06:35;;;;;;;7.53;2.85;;;;;;;7.16;63.48;99349.22;5019480;28;20059;-74
2022/04/03 02:09:02;;;;;;;4.18;2.30;;;;;;;7.19;64.11;99370.09;5036089;28;20033;-74
2022/04/03 02:11:28;;;;;;;3.90;2.47;;;;;;;7.09;63.55;99348.38;4999354;28;20049;-72
2022/04/03 02:13:53;;;;;;;11.15;2.50;;;;;;;7.10;63.01;99350.13;5033546;28;20112;-72
2022/04/03 02:16:19;;;;;;;4.13;2.40;;;;;;;6.98;63.11;99350.16;5002225;28;20397;-72
2022/04/03 02:18:45;;;;;;;9.85;2.40;;;;;;;6.79;63.66;99330.19;5016168;28;20428;-73
2022/04/03 02:21:11;;;;;;;3.78;2.40;;;;;;;7.09;63.72;99357.94;5019320;28;20065;-73
2022/04/03 02:23:36;;;;;;;4.07;2.10;;;;;;;6.83;63.47;99352.81;5036702;28;20405;-74
2022/04/03 02:26:11;;;;;;;6.45;2.42;;;;;;;6.71;64.87;99351.94;5022377;28;20041;-74
2022/04/03 02:28:39;;;;;;;5.25;2.60;;;;;;;6.71;64.69;99362.38;5024234;28;20057;-73
2022/04/03 02:31:04;;;;;;;4.72;2.63;;;;;;;6.37;65.95;99366.75;5014050;28;20477;-74
2022/04/03 02:33:30;;;;;;;4.20;2.20;;;;;;;6.41;64.84;99332.00;5014986;28;20042;-74
2022/04/03 02:35:55;;;;;;;3.40;2.15;;;;;;;6.76;64.83;99355.41;5012443;28;20032;-74
2022/04/03 02:38:21;;;;;;;5.13;2.38;;;;;;;6.83;64.41;99369.31;5017358;28;20057;-73
2022/04/03 02:40:47;;;;;;;4.10;2.47;;;;;;;6.67;64.43;99354.56;5015524;28;20421;-73
2022/04/03 02:43:12;;;;;;;4.55;2.33;;;;;;;6.55;65.38;99350.22;5016303;28;20465;-73
2022/04/03 02:45:39;;;;;;;5.43;2.20;;;;;;;6.63;64.99;99376.31;5021026;28;20045;-75
2022/04/03 02:48:06;;;;;;;5.32;2.78;;;;;;;6.59;65.34;99374.56;5019001;28;22288;-74
2022/04/03 02:50:32;;;;;;;7.07;3.38;;;;;;;6.59;65.37;99370.22;5017527;28;20036;-73
2022/04/03 02:52:58;;;;;;;5.70;2.08;;;;;;;6.55;64.96;99360.66;5017703;28;20065;-74
2022/04/03 02:55:25;;;;;;;5.10;2.50;;;;;;;6.55;64.53;99345.91;5019751;28;20052;-72
2022/04/03 02:57:52;;;;;;;6.28;2.67;;;;;;;6.42;65.70;99364.16;5017456;28;20053;-73
2022/04/03 03:00:19;;;;;;;4.97;2.63;;;;;;;6.30;65.34;99345.03;5016394;28;20477;-75
2022/04/03 03:02:47;;;;;;;4.70;2.65;;;;;;;6.41;65.70;99358.06;5020206;28;20104;-73
2022/04/03 03:05:14;;;;;;;5.40;2.33;;;;;;;6.47;65.29;99362.41;5019420;28;20466;-74
2022/04/03 03:07:41;;;;;;;6.38;2.55;;;;;;;6.32;66.17;99355.44;5021730;28;20129;-73
2022/04/03 03:10:09;;;;;;;8.75;3.50;;;;;;;6.37;66.59;99364.16;5021639;28;20485;-74
2022/04/03 03:12:34;;;;;;;7.03;3.35;;;;;;;6.02;67.52;99328.53;5018423;28;20048;-74
2022/04/03 03:15:04;;;;;;;6.70;4.00;;;;;;;6.30;66.78;99342.44;5026063;28;20080;-73
2022/04/03 03:17:29;;;;;;;5.10;3.58;;;;;;;6.05;66.67;99369.34;5036974;28;20531;-72
2022/04/03 03:19:55;;;;;;;4.55;3.22;;;;;;;6.42;65.99;99359.81;5039152;28;20033;-74
2022/04/03 03:22:21;;;;;;;4.63;2.95;;;;;;;6.22;66.69;99333.75;5025487;28;20134;-73
2022/04/03 03:24:46;;;;;;;6.88;3.13;;;;;;;6.26;65.81;99363.28;5000835;28;20049;-73
2022/04/03 03:27:12;;;;;;;4.70;2.92;;;;;;;6.46;65.88;99358.06;5019294;28;20036;-73
2022/04/03 03:29:38;;;;;;;6.40;3.22;;;;;;;6.37;65.89;99352.84;5031754;28;20204;-72
2022/04/03 03:32:04;;;;;;;7.53;3.33;;;;;;;6.55;65.40;99387.59;5018046;28;20045;-74
2022/04/03 03:34:30;;;;;;;5.13;3.03;;;;;;;6.17;65.68;99356.31;5033009;28;20041;-71
2022/04/03 03:36:55;;;;;;;6.50;4.00;;;;;;;6.05;66.43;99383.22;5032962;28;20095;-74
2022/04/03 03:39:28;;;;;;;7.50;3.55;;;;;;;6.22;66.41;99378.03;5033748;28;20075;-74
2022/04/03 03:41:55;;;;;;;5.03;3.33;;;;;;;6.28;67.73;99387.59;5030405;28;20820;-74
2022/04/03 03:44:21;;;;;;;7.93;2.55;;;;;;;6.23;66.57;99345.06;5024067;28;20060;-71
2022/04/03 03:46:46;;;;;;;6.15;3.22;;;;;;;5.72;67.09;99357.97;5032752;28;20045;-73
2022/04/03 03:49:14;;;;;;;5.65;3.38;;;;;;;5.77;67.78;99351.03;5033079;28;20041;-73
2022/04/03 03:51:40;;;;;;;4.63;2.53;;;;;;;6.21;66.71;99381.50;5032103;28;20048;-73
2022/04/03 03:54:06;;;;;;;9.27;3.08;;;;;;;6.05;66.73;99346.75;5035545;28;20040;-73
2022/04/03 03:56:32;;;;;;;6.25;3.45;;;;;;;6.38;67.51;99375.44;5012583;28;20497;-73
2022/04/03 03:58:58;;;;;;;10.02;3.67;;;;;;;5.98;68.01;99363.25;5034976;28;20037;-73
2022/04/03 04:01:23;;;;;;;5.07;2.83;;;;;;;6.39;66.14;99367.63;5014982;28;20037;-73
2022/04/03 04:03:49;;;;;;;5.20;3.45;;;;;;;6.49;66.87;99413.66;5015262;28;20370;-74
2022/04/03 04:06:15;;;;;;;4.60;3.10;;;;;;;6.20;67.14;99387.56;5030652;28;20021;-73
2022/04/03 04:08:41;;;;;;;5.97;3.85;;;;;;;6.00;67.15;99384.09;5032571;28;20115;-74
2022/04/03 04:11:07;;;;;;;5.20;3.15;;;;;;;5.99;67.54;99377.13;5031500;28;20041;-74
2022/04/03 04:13:32;;;;;;;5.03;3.35;;;;;;;6.13;67.60;99406.66;5030370;28;20045;-73
2022/04/03 04:15:58;;;;;;;8.10;4.13;;;;;;;6.07;67.67;99384.09;5012821;28;20557;-73
2022/04/03 04:18:24;;;;;;;10.35;4.00;;;;;;;5.90;67.17;99396.19;5009543;28;20026;-73
2022/04/03 04:20:52;;;;;;;5.30;3.28;;;;;;;6.07;67.33;99404.06;5013010;28;20033;-75
2022/04/03 04:23:19;;;;;;;7.07;3.22;;;;;;;5.71;67.51;99401.34;5018600;28;20053;-74
2022/04/03 04:25:45;;;;;;;8.73;3.88;;;;;;;6.06;67.25;99420.53;5010164;28;20057;-75
2022/04/03 04:28:11;;;;;;;7.57;3.90;;;;;;;6.10;67.43;99398.84;5011407;28;20044;-75
2022/04/03 04:30:37;;;;;;;7.07;3.17;;;;;;;6.09;66.76;99399.72;5010180;28;20100;-75
2022/04/03 04:33:03;;;;;;;5.72;3.25;;;;;;;6.24;66.33;99448.38;5013393;28;20029;-74
2022/04/03 04:35:29;;;;;;;8.98;3.97;;;;;;;5.91;67.07;99423.94;5013373;28;20044;-74
2022/04/03 04:37:54;;;;;;;6.55;3.85;;;;;;;6.12;66.05;99418.81;5010094;28;20049;-74
2022/04/03 04:40:20;;;;;;;7.15;3.40;;;;;;;5.79;66.75;99430.00;5012640;28;20038;-74
2022/04/03 04:42:47;;;;;;;9.95;3.60;;;;;;;6.19;65.88;99418.84;5006907;28;20100;-74
2022/04/03 04:45:14;;;;;;;7.38;3.95;;;;;;;5.87;66.00;99417.00;5009901;28;20041;-75
2022/04/03 04:47:41;;;;;;;5.28;3.55;;;;;;;6.16;65.24;99409.28;5015152;28;20049;-74
2022/04/03 04:50:14;;;;;;;6.75;3.72;;;;;;;6.00;65.42;99413.59;5018280;28;20037;-75
2022/04/03 04:52:40;;;;;;;9.05;3.75;;;;;;;6.65;65.47;99443.19;5010610;28;20435;-73
2022/04/03 04:55:07;;;;;;;6.43;3.70;;;;;;;6.56;64.31;99435.38;5014687;28;20076;-74
2022/04/03 04:57:35;;;;;;;10.35;4.30;;;;;;;6.51;64.76;99440.59;5016310;28;20057;-75
2022/04/03 05:00:02;;;;;;;8.75;4.28;;;;;;;6.78;64.43;99457.09;5024355;28;20625;-75
2022/04/03 05:02:28;;;;;;;7.30;4.40;;;;;;;6.57;63.92;99418.00;5019430;28;20060;-74
2022/04/03 05:04:54;;;;;;;9.98;4.07;;;;;;;6.55;65.09;99418.00;5017583;28;20037;-74
2022/04/03 05:07:19;;;;;;;8.05;4.35;;;;;;;6.57;64.23;99407.56;5019151;28;20490;-75
2022/04/03 05:09:46;;;;;;;7.80;5.07;;;;;;;6.36;65.33;99414.50;5016752;28;20041;-73
2022/04/03 05:12:13;;;;;;;6.10;3.35;;;;;;;6.51;64.86;99417.13;5019040;28;20083;-72
2022/04/03 05:14:39;;;;;;;6.72;3.85;;;;;;;6.53;64.27;99422.31;5018486;28;20461;-73
2022/04/03 05:17:05;;;;;;;6.15;4.25;;;;;;;6.47;64.86;99412.78;5009825;28;20052;-73
2022/04/03 05:19:32;;;;;;;9.63;4.28;;;;;;;7.41;62.98;99415.25;5035922;28;20068;-73
2022/04/03 05:21:58;;;;;;;6.85;3.97;;;;;;;8.12;60.45;99423.59;5030234;28;20106;-72
2022/04/03 05:24:24;;;;;;;7.80;4.10;;;;;;;8.31;59.42;99428.72;5013748;28;20449;-73
2022/04/03 05:26:50;;;;;;;5.35;3.80;;;;;;;7.68;60.91;99434.28;5039870;28;20029;-73
2022/04/03 05:29:16;;;;;;;7.80;3.90;;;;;;;8.45;60.40;99439.97;5029705;28;20045;-73
2022/04/03 05:31:41;;;;;;;7.70;4.30;;;;;;;8.69;57.63;99459.00;5029949;28;20107;-74
2022/04/03 05:34:08;;;;;;;8.40;4.60;;;;;;;9.22;57.83;99473.34;5034807;28;20068;-74
2022/04/03 05:36:34;;;;;;;9.13;4.35;;;;;;;8.98;57.65;99437.81;5022101;28;20136;-73
2022/04/03 05:39:04;;;;;;;5.72;3.38;;;;;;;9.80;57.78;99450.91;5035929;28;20024;-73
2022/04/03 05:41:30;;;;;;;6.28;4.20;;;;;;;9.21;55.88;99472.47;5034344;28;20029;-74
2022/04/03 05:43:56;;;;;;;8.10;4.47;;;;;;;10.07;54.53;99492.47;5012993;28;20046;-72
2022/04/03 05:46:22;;;;;;;8.95;4.45;;;;;;;10.57;52.93;99469.09;5032083;28;20064;-73
2022/04/03 05:48:47;;;;;;;7.75;4.22;;;;;;;10.79;52.75;99474.84;5032770;28;20045;-73
2022/04/03 05:51:13;;;;;;;11.25;7.00;;;;;;;11.38;51.82;99490.50;5037025;28;20021;-73
2022/04/03 05:53:40;;;;;;;6.78;4.20;;;;;;;10.44;51.39;99488.50;5019014;28;20025;-73
2022/04/03 05:56:05;;;;;;;7.20;4.45;;;;;;;10.59;52.47;99472.56;5034277;28;20033;-73
2022/04/03 05:58:31;;;;;;;9.38;4.28;;;;;;;10.22;53.81;99488.78;5035175;28;20114;-74
2022/04/03 06:00:57;;;;;;;6.60;4.00;;;;;;;10.80;52.88;99494.97;5034229;28;20124;-73
2022/04/03 06:03:22;;;;;;;5.13;3.65;;;;;;;11.69;51.14;99521.44;5032963;28;20025;-73
2022/04/03 06:05:48;;;;;;;6.28;4.95;;;;;;;10.64;52.08;99499.56;5034609;28;20017;-72
2022/04/03 06:08:13;;;;;;;6.07;4.25;;;;;;;11.24;51.17;99524.88;5009362;28;20075;-73
2022/04/03 06:10:39;;;;;;;8.23;4.57;;;;;;;10.82;52.33;99492.34;5035063;28;20117;-74
2022/04/03 06:13:09;;;;;;;7.63;3.72;;;;;;;11.40;50.22;99489.56;5035478;28;20942;-77
2022/04/03 06:15:42;;;;;;;8.07;3.85;;;;;;;11.12;51.34;99498.81;5017525;28;20049;-77
2022/04/03 06:18:12;;;;;;;5.68;4.05;;;;;;;10.80;52.49;99499.34;5016784;28;20053;-76
2022/04/03 06:20:40;;;;;;;6.57;3.88;;;;;;;10.46;52.73;99523.44;5021750;28;20393;-78
2022/04/03 06:23:14;;;;;;;7.85;4.38;;;;;;;10.63;51.94;99494.34;5017435;28;20043;-75
2022/04/03 06:25:40;;;;;;;5.80;3.63;;;;;;;10.52;52.76;99526.00;5015547;28;20044;-76
2022/04/03 06:28:06;;;;;;;5.78;3.75;;;;;;;10.83;52.85;99520.28;4997708;28;20054;-76
2022/04/03 06:30:32;;;;;;;8.00;4.43;;;;;;;11.01;52.00;99519.16;5017217;28;20046;-76
2022/04/03 06:32:57;;;;;;;5.60;3.22;;;;;;;10.89;51.98;99528.09;5020732;28;20031;-77
2022/04/03 06:35:23;;;;;;;7.60;3.80;;;;;;;10.09;53.45;99498.56;5014938;28;20060;-77
2022/04/03 06:37:48;;;;;;;4.50;3.00;;;;;;;10.19;53.82;99522.91;5005983;28;20512;-78
2022/04/03 06:40:16;;;;;;;6.03;3.55;;;;;;;10.35;53.14;99529.72;5015772;28;20042;-79
2022/04/03 06:42:43;;;;;;;6.45;3.80;;;;;;;10.14;54.13;99528.22;5014095;28;20049;-78
2022/04/03 06:45:10;;;;;;;4.72;3.13;;;;;;;10.26;53.07;99518.47;5018041;28;20044;-79
2022/04/03 06:47:37;;;;;;;7.68;5.15;;;;;;;9.90;53.60;99491.81;5019057;28;20058;-78
2022/04/03 06:50:08;;;;;;;7.25;3.08;;;;;;;9.64;53.65;99506.06;4999635;28;20114;-78
2022/04/03 06:52:34;;;;;;;6.15;4.13;;;;;;;9.66;53.75;99508.69;5017360;28;20406;-77
2022/04/03 06:55:00;;;;;;;6.43;3.45;;;;;;;9.93;54.25;99524.09;5015511;28;20071;-78
2022/04/03 06:57:26;;;;;;;7.07;4.10;;;;;;;9.93;54.98;99531.09;5004396;28;20025;-78
2022/04/03 06:59:52;;;;;;;12.85;4.30;;;;;;;9.76;54.58;99519.91;5014702;28;20090;-78
2022/04/03 07:02:17;;;;;;;8.98;4.00;;;;;;;10.09;54.08;99522.16;5021604;28;20073;-79
2022/04/03 07:04:43;;;;;;;5.70;3.33;;;;;;;10.15;53.74;99510.72;5024324;28;20041;-70
2022/04/03 07:07:09;;;;;;;11.50;4.45;;;;;;;10.21;53.17;99543.84;5022679;28;20049;-81
2022/04/03 07:09:43;;;;;;;5.00;2.70;;;;;;;10.11;53.35;99528.25;5026103;28;20045;-80
2022/04/03 07:12:10;;;;;;;5.03;2.92;;;;;;;10.03;53.16;99513.50;5017161;28;20068;-80
2022/04/03 07:14:37;;;;;;;6.70;3.70;;;;;;;10.13;53.44;99552.66;5008828;28;20489;-80
2022/04/03 07:17:05;;;;;;;4.72;2.72;;;;;;;10.00;53.30;99521.41;5040593;28;20038;-80
2022/04/03 07:19:31;;;;;;;19.92;13.98;;;;;;;10.46;53.30;99552.28;5022378;28;20053;-80
2022/04/03 07:21:57;;;;;;;8.63;3.22;;;;;;;9.79;53.19;99522.53;5037974;28;20044;-80
2022/04/03 07:24:24;;;;;;;6.20;3.20;;;;;;;10.05;53.59;99527.47;5015035;28;20059;-80
2022/04/03 07:26:56;;;;;;;6.05;3.85;;;;;;;10.24;52.46;99530.72;5038303;28;20028;-80
2022/04/03 07:29:22;;;;;;;7.38;3.60;;;;;;;10.51;52.11;99560.97;5027302;28;20168;-81
2022/04/03 07:31:49;;;;;;;6.30;3.38;;;;;;;10.54;51.96;99524.22;5039543;28;20166;-80
2022/04/03 07:34:16;;;;;;;7.43;3.75;;;;;;;10.38;52.14;99527.94;5018560;28;20046;-80
2022/04/03 07:36:41;;;;;;;6.22;3.08;;;;;;;10.41;52.96;99528.75;5029783;28;20485;-80
2022/04/03 07:39:09;;;;;;;6.60;2.78;;;;;;;10.02;52.85;99544.09;5036259;28;20021;-81
2022/04/03 07:41:37;;;;;;;9.20;4.93;;;;;;;10.14;54.38;99575.41;5036935;28;20053;-81
2022/04/03 07:44:12;;;;;;;5.85;4.47;;;;;;;10.24;53.70;99568.28;5022242;28;20163;-80
2022/04/03 07:46:40;;;;;;;7.72;3.92;;;;;;;10.21;53.56;99552.59;5021627;28;20040;-80
2022/04/03 07:49:10;;;;;;;6.78;4.25;;;;;;;10.38;53.13;99562.91;5038611;28;20115;-81
2022/04/03 07:51:36;;;;;;;6.50;3.28;;;;;;;10.36;54.30;99562.03;5035568;28;20057;-80
2022/04/03 07:54:03;;;;;;;5.80;3.88;;;;;;;10.38;53.22;99569.91;5034949;28;20021;-81
2022/04/03 07:56:29;;;;;;;8.10;4.07;;;;;;;10.30;52.58;99546.38;5027733;28;20408;-82
2022/04/03 07:58:55;;;;;;;7.43;3.83;;;;;;;10.48;52.28;99546.13;5038568;28;20523;-76
2022/04/03 08:01:21;;;;;;;7.10;4.15;;;;;;;10.52;53.80;99532.09;5040103;28;20033;-78
2022/04/03 08:03:47;;;;;;;8.35;4.00;;;;;;;10.65;52.36;99555.53;5037441;28;20136;-78
2022/04/03 08:06:12;;;;;;;6.32;4.05;;;;;;;10.51;52.42;99558.34;5016417;28;20025;-77
2022/04/03 08:08:39;;;;;;;6.85;4.43;;;;;;;10.87;52.02;99549.09;5037344;28;20178;-76
2022/04/03 08:11:05;;;;;;;6.28;4.30;;;;;;;10.28;52.48;99559.53;5019275;28;20045;-76
2022/04/03 08:13:30;;;;;;;8.18;4.45;;;;;;;10.04;53.05;99562.41;5025522;28;20041;-76
2022/04/03 08:15:58;;;;;;;6.90;4.65;;;;;;;10.19;53.32;99587.59;5031323;28;20095;-76
2022/04/03 08:18:24;;;;;;;8.05;4.78;;;;;;;10.12;53.55;99574.53;5029383;28;20095;-79
2022/04/03 08:20:51;;;;;;;7.38;4.95;;;;;;;9.98;54.39;99586.94;5036908;28;20021;-76
2022/04/03 08:23:16;;;;;;;13.65;5.13;;;;;;;10.06;54.83;99561.50;5017134;28;20050;-73
2022/04/03 08:25:45;;;;;;;7.57;5.53;;;;;;;9.91;54.88;99564.31;5035413;28;20043;-76
2022/04/03 08:28:11;;;;;;;7.72;4.95;;;;;;;10.05;54.67;99566.78;5028541;28;20043;-76
2022/04/03 08:30:37;;;;;;;8.90;5.00;;;;;;;10.41;55.06;99577.72;5016111;28;20539;-77
2022/04/03 08:33:04;;;;;;;6.03;4.53;;;;;;;10.35;54.07;99574.31;5016393;28;20026;-80
2022/04/03 08:35:31;;;;;;;9.88;3.97;;;;;;;10.68;51.08;99559.00;5034301;28;20056;-76
2022/04/03 08:37:58;;;;;;;6.50;3.58;;;;;;;10.43;51.10;99563.69;5032332;28;20053;-78
2022/04/03 08:40:26;;;;;;;7.70;4.05;;;;;;;10.53;50.62;99578.41;5031645;28;20045;-73
2022/04/03 08:42:54;;;;;;;7.05;3.75;;;;;;;10.67;50.28;99596.59;5031058;28;20033;-80
2022/04/03 08:45:21;;;;;;;7.03;3.30;;;;;;;10.34;49.52;99556.81;5030244;28;20035;-79
2022/04/03 08:47:48;;;;;;;6.05;4.05;;;;;;;10.54;49.96;99598.53;5035405;28;20041;-77
2022/04/03 08:50:17;;;;;;;8.10;4.07;;;;;;;10.55;49.99;99605.50;5031234;28;20103;-77
2022/04/03 08:52:49;;;;;;;8.52;4.47;;;;;;;10.82;49.89;99594.69;5017006;28;20048;-79
2022/04/03 08:55:17;;;;;;;11.68;4.13;;;;;;;11.12;49.25;99590.69;5030422;28;20060;-78
2022/04/03 08:57:43;;;;;;;5.82;4.47;;;;;;;10.72;49.27;99572.91;5033010;28;20595;-75
2022/04/03 09:00:10;;;;;;;6.82;3.88;;;;;;;10.67;49.63;99562.50;5032074;28;20032;-77
2022/04/03 09:02:35;;;;;;;6.55;3.65;;;;;;;11.03;49.91;99593.47;5018283;28;20059;-78
2022/04/03 09:05:01;;;;;;;12.52;4.72;;;;;;;11.42;50.21;99597.22;5032006;28;20158;-75
2022/04/03 09:07:27;;;;;;;5.20;3.55;;;;;;;11.41;48.60;99585.00;5028155;28;20179;-75
2022/04/03 09:09:57;;;;;;;7.43;4.75;;;;;;;10.97;47.49;99592.66;5030490;28;20034;-78
2022/04/03 09:12:23;;;;;;;5.40;4.22;;;;;;;10.87;47.74;99606.81;5001335;28;20044;-79
2022/04/03 09:14:53;;;;;;;8.32;5.40;;;;;;;11.11;47.90;99604.72;5019399;28;20322;-77
2022/04/03 09:17:42;;;;;;;8.73;5.45;;;;;;;11.09;48.04;99575.88;4997743;28;21098;-75
2022/04/03 09:20:09;;;;;;;15.75;5.30;;;;;;;10.96;48.48;99593.56;5010080;28;20042;-77
2022/04/03 09:22:37;;;;;;;9.20;5.45;;;;;;;11.08;48.84;99604.78;5013196;28;22846;-77
2022/04/03 09:25:07;;;;;;;9.20;5.85;;;;;;;10.87;48.99;99598.09;5012329;28;20489;-77
2022/04/03 09:27:52;;;;;;;11.07;6.22;;;;;;;10.72;48.26;99578.16;5012695;28;20073;-77
2022/04/03 09:30:28;;;;;;;8.30;5.75;;;;;;;10.78;49.02;99605.19;5000300;28;20021;-80
2022/04/03 09:33:05;;;;;;;11.05;5.85;;;;;;;10.93;48.87;99577.00;5028094;28;20054;-80
2022/04/03 09:35:58;;;;;;;9.50;6.35;;;;;;;11.64;48.35;99607.41;5029926;28;20057;-79
2022/04/03 09:38:29;;;;;;;12.13;6.38;;;;;;;11.36;47.08;99586.84;5015890;28;20072;-80
2022/04/03 09:41:00;;;;;;;7.90;5.80;;;;;;;11.80;47.47;99612.34;5011283;28;20054;-80
2022/04/03 09:43:34;;;;;;;12.63;6.38;;;;;;;11.67;46.79;99587.16;5016507;28;20363;-79
2022/04/03 09:46:12;;;;;;;10.63;6.45;;;;;;;11.72;47.62;99611.59;5016420;28;20187;-78
2022/04/03 09:48:43;;;;;;;12.27;6.90;;;;;;;11.71;47.49;99616.91;4997877;28;20099;-79
2022/04/03 09:51:24;;;;;;;9.07;5.65;;;;;;;11.64;47.29;99631.91;5020948;28;21025;-79
2022/04/03 09:53:58;;;;;;;12.63;6.75;;;;;;;11.78;47.04;99587.84;5016298;28;20041;-80
2022/04/03 09:56:34;;;;;;;11.43;8.15;;;;;;;11.69;47.82;99598.53;5003686;28;20034;-80
2022/04/03 09:59:07;;;;;;;10.80;6.05;;;;;;;11.76;47.29;99600.16;4990300;28;20124;-81
2022/04/03 10:01:42;;;;;;;11.95;7.78;;;;;;;11.56;47.93;99604.88;5017832;28;20044;-81
2022/04/03 10:04:10;;;;;;;12.07;6.05;;;;;;;11.73;47.95;99608.09;5027726;28;20045;-80
2022/04/03 10:06:38;;;;;;;10.07;6.47;;;;;;;11.77;48.41;99622.03;4985057;28;20588;-81
2022/04/03 10:09:07;;;;;;;8.45;6.43;;;;;;;12.07;47.41;99630.28;5011522;28;20021;-81
2022/04/03 10:11:35;;;;;;;8.43;5.30;;;;;;;11.44;46.41;99605.94;5015123;28;20152;-81
2022/04/03 10:14:06;;;;;;;10.30;4.85;;;;;;;11.99;46.28;99638.34;5014215;28;20049;-82
2022/04/03 10:16:31;;;;;;;8.27;4.80;;;;;;;11.69;46.56;99622.19;5025247;28;20094;-79
2022/04/03 10:18:57;;;;;;;12.93;5.70;;;;;;;11.94;46.21;99587.56;5032590;28;20037;-81
2022/04/03 10:21:45;;;;;;;8.20;5.63;;;;;;;12.32;44.98;99621.03;5021701;28;21089;-81
2022/04/03 10:24:19;;;;;;;6.78;4.35;;;;;;;12.16;43.89;99601.19;5033288;28;20028;-82
2022/04/03 10:27:30;;;;;;;5.47;3.35;;;;;;;12.12;42.37;99608.25;5014949;28;20100;-79
2022/04/03 10:29:58;;;;;;;11.30;3.90;;;;;;;12.22;43.17;99604.56;4982862;28;20061;-81
2022/04/03 10:32:27;;;;;;;8.13;4.18;;;;;;;11.99;42.93;99625.19;4984817;28;20532;-79
2022/04/03 10:34:58;;;;;;;7.72;4.47;;;;;;;12.33;42.13;99646.44;4992540;28;20037;-82
2022/04/03 10:37:37;;;;;;;5.90;4.40;;;;;;;12.66;42.20;99615.06;5016182;28;20037;-79
2022/04/03 10:40:07;;;;;;;5.80;4.05;;;;;;;13.27;40.61;99639.16;5029455;28;20049;-79
2022/04/03 10:42:49;;;;;;;8.77;4.32;;;;;;;13.67;41.87;99625.94;5030153;28;20041;-79
2022/04/03 10:45:17;;;;;;;8.13;5.25;;;;;;;13.56;42.79;99641.13;5019653;28;20033;-79
2022/04/03 10:47:43;;;;;;;6.00;4.50;;;;;;;13.71;41.21;99617.00;5020075;28;20037;-80
2022/04/03 10:50:10;;;;;;;12.48;3.97;;;;;;;13.82;40.97;99615.88;5003055;28;20072;-80
2022/04/03 10:52:38;;;;;;;21.65;4.65;;;;;;;14.22;41.31;99614.81;4994185;28;20053;-80
2022/04/03 10:55:20;;;;;;;10.00;4.63;;;;;;;13.82;41.03;99645.75;5012792;28;20053;-82
2022/04/03 10:58:06;;;;;;;14.73;4.88;;;;;;;14.48;42.05;99640.47;5020693;28;20124;-80
2022/04/03 11:00:34;;;;;;;10.80;4.50;;;;;;;13.89;39.48;99620.09;5000036;28;20079;-80
2022/04/03 11:03:28;;;;;;;10.07;4.32;;;;;;;14.40;41.07;99631.88;5000180;28;20041;-79
2022/04/03 11:05:54;;;;;;;12.65;5.47;;;;;;;14.19;40.39;99655.34;5027398;28;20037;-79
2022/04/03 11:08:43;;;;;;;7.10;4.60;;;;;;;13.88;40.42;99650.88;5035744;28;20440;-80
2022/04/03 11:11:09;;;;;;;8.90;5.03;;;;;;;14.05;39.80;99649.56;5033358;28;20044;-80
2022/04/03 11:13:34;;;;;;;7.15;3.78;;;;;;;14.05;39.77;99647.78;5033067;28;20033;-80
2022/04/03 11:16:03;;;;;;;5.13;3.33;;;;;;;14.01;39.48;99648.78;5036041;28;20041;-80
2022/04/03 11:18:50;;;;;;;9.30;4.57;;;;;;;13.60;39.67;99642.81;5032330;28;20029;-79
2022/04/03 11:21:30;;;;;;;7.78;5.47;;;;;;;14.07;39.66;99668.84;5030433;28;20484;-79
2022/04/03 11:24:03;;;;;;;7.53;3.85;;;;;;;13.78;38.22;99638.81;5030526;28;20041;-78
2022/04/03 11:26:30;;;;;;;12.82;3.70;;;;;;;13.77;37.09;99670.53;5030281;28;20049;-81
2022/04/03 11:28:58;;;;;;;7.80;4.05;;;;;;;13.88;37.76;99640.34;5028541;28;20495;-80
2022/04/03 11:31:24;;;;;;;7.63;3.97;;;;;;;13.91;37.69;99665.75;5029002;28;20037;-80
2022/04/03 11:33:50;;;;;;;8.35;4.00;;;;;;;13.87;38.36;99664.09;5017272;28;20044;-79
2022/04/03 11:36:18;;;;;;;5.85;3.60;;;;;;;13.28;38.42;99670.78;5028258;28;20490;-81
2022/04/03 11:38:48;;;;;;;10.13;4.05;;;;;;;13.09;37.59;99633.44;5027803;28;20361;-80
2022/04/03 11:41:31;;;;;;;13.90;4.35;;;;;;;13.01;37.58;99652.94;5030786;28;20056;-80